sensor_id;sensor_type;location;lat;lon;timestamp;pressure;altitude;pressure_sealevel;temperature;humidity
12868;BME280;33517;49.866;8.320;2022-08-11T00:00:36;100959.56;;;19.87;46.21
12868;BME280;33517;49.866;8.320;2022-08-11T00:03:30;100958.13;;;19.91;45.84
12868;BME280;33517;49.866;8.320;2022-08-11T00:06:26;100958.13;;;19.91;45.74
12868;BME280;33517;49.866;8.320;2022-08-11T00:09:20;100953.59;;;19.92;45.86
12868;BME280;33517;49.866;8.320;2022-08-11T00:12:15;100955.66;;;19.90;46.01
12868;BME280;33517;49.866;8.320;2022-08-11T00:15:09;100956.50;;;19.84;45.64
12868;BME280;33517;49.866;8.320;2022-08-11T00:18:02;100958.78;;;19.80;45.80
12868;BME280;33517;49.866;8.320;2022-08-11T00:20:58;100952.84;;;19.72;45.73
12868;BME280;33517;49.866;8.320;2022-08-11T00:23:54;100960.91;;;19.65;45.66
12868;BME280;33517;49.866;8.320;2022-08-11T00:26:47;100948.63;;;19.58;46.07
12868;BME280;33517;49.866;8.320;2022-08-11T00:29:40;100959.47;;;19.56;46.52
12868;BME280;33517;49.866;8.320;2022-08-11T00:32:32;100962.56;;;19.53;46.28
12868;BME280;33517;49.866;8.320;2022-08-11T00:35:27;100956.63;;;19.45;46.13
12868;BME280;33517;49.866;8.320;2022-08-11T00:38:24;100958.91;;;19.41;46.26
12868;BME280;33517;49.866;8.320;2022-08-11T00:41:28;100961.38;;;19.36;46.31
12868;BME280;33517;49.866;8.320;2022-08-11T00:44:28;100961.97;;;19.31;46.16
12868;BME280;33517;49.866;8.320;2022-08-11T00:47:37;100958.28;;;19.26;46.63
12868;BME280;33517;49.866;8.320;2022-08-11T00:50:43;100955.44;;;19.21;46.82
12868;BME280;33517;49.866;8.320;2022-08-11T00:53:45;100966.09;;;19.14;46.86
12868;BME280;33517;49.866;8.320;2022-08-11T01:00:10;100959.34;;;18.99;46.94
12868;BME280;33517;49.866;8.320;2022-08-11T01:03:17;100955.25;;;18.90;47.21
12868;BME280;33517;49.866;8.320;2022-08-11T01:06:37;100959.78;;;18.83;47.59
12868;BME280;33517;49.866;8.320;2022-08-11T01:09:48;100958.31;;;18.74;47.79
12868;BME280;33517;49.866;8.320;2022-08-11T01:12:57;100959.16;;;18.68;47.31
12868;BME280;33517;49.866;8.320;2022-08-11T01:19:57;100958.31;;;18.54;48.17
12868;BME280;33517;49.866;8.320;2022-08-11T01:23:24;100958.31;;;18.48;47.91
12868;BME280;33517;49.866;8.320;2022-08-11T01:26:58;100958.28;;;18.41;48.60
12868;BME280;33517;49.866;8.320;2022-08-11T01:37:49;100962.56;;;18.29;49.05
12868;BME280;33517;49.866;8.320;2022-08-11T01:41:21;100959.88;;;18.29;49.99
12868;BME280;33517;49.866;8.320;2022-08-11T01:45:05;100965.00;;;18.30;49.37
12868;BME280;33517;49.866;8.320;2022-08-11T01:48:02;100968.69;;;18.36;50.74
12868;BME280;33517;49.866;8.320;2022-08-11T01:51:07;100966.72;;;18.45;50.64
12868;BME280;33517;49.866;8.320;2022-08-11T01:54:08;100963.44;;;18.62;50.54
12868;BME280;33517;49.866;8.320;2022-08-11T01:57:11;100964.91;;;18.91;49.13
12868;BME280;33517;49.866;8.320;2022-08-11T02:00:11;100966.31;;;19.06;48.47
12868;BME280;33517;49.866;8.320;2022-08-11T02:03:11;100964.47;;;19.26;48.10
12868;BME280;33517;49.866;8.320;2022-08-11T02:06:13;100959.13;;;19.40;47.97
12868;BME280;33517;49.866;8.320;2022-08-11T02:09:42;100968.13;;;19.45;47.46
12868;BME280;33517;49.866;8.320;2022-08-11T02:12:43;100971.19;;;19.49;47.08
12868;BME280;33517;49.866;8.320;2022-08-11T02:15:38;100965.06;;;19.48;47.50
12868;BME280;33517;49.866;8.320;2022-08-11T02:18:36;100967.69;;;19.55;47.18
12868;BME280;33517;49.866;8.320;2022-08-11T02:21:51;100964.38;;;19.66;47.03
12868;BME280;33517;49.866;8.320;2022-08-11T02:25:10;100967.88;;;19.73;46.81
12868;BME280;33517;49.866;8.320;2022-08-11T02:28:12;100974.22;;;19.72;47.05
12868;BME280;33517;49.866;8.320;2022-08-11T02:31:12;100966.44;;;19.70;46.98
12868;BME280;33517;49.866;8.320;2022-08-11T02:34:32;100965.00;;;19.68;46.87
12868;BME280;33517;49.866;8.320;2022-08-11T02:37:36;100962.72;;;19.71;46.80
12868;BME280;33517;49.866;8.320;2022-08-11T02:40:42;100966.22;;;19.72;46.55
12868;BME280;33517;49.866;8.320;2022-08-11T02:43:46;100959.03;;;19.72;46.59
12868;BME280;33517;49.866;8.320;2022-08-11T02:49:59;100962.47;;;19.79;46.04
12868;BME280;33517;49.866;8.320;2022-08-11T02:53:00;100960.19;;;19.83;46.12
12868;BME280;33517;49.866;8.320;2022-08-11T02:56:02;100956.91;;;19.87;45.71
12868;BME280;33517;49.866;8.320;2022-08-11T02:59:02;100957.72;;;19.88;45.71
12868;BME280;33517;49.866;8.320;2022-08-11T03:02:37;100964.69;;;19.89;45.79
12868;BME280;33517;49.866;8.320;2022-08-11T03:05:50;100961.00;;;19.90;45.89
12868;BME280;33517;49.866;8.320;2022-08-11T03:08:49;100962.84;;;19.89;45.81
12868;BME280;33517;49.866;8.320;2022-08-11T03:11:55;100963.91;;;19.88;45.87
12868;BME280;33517;49.866;8.320;2022-08-11T03:15:11;100966.97;;;19.85;46.06
12868;BME280;33517;49.866;8.320;2022-08-11T03:18:28;100965.34;;;19.84;46.06
12868;BME280;33517;49.866;8.320;2022-08-11T03:21:26;100968.03;;;19.84;46.27
12868;BME280;33517;49.866;8.320;2022-08-11T03:24:27;100965.75;;;19.81;46.08
12868;BME280;33517;49.866;8.320;2022-08-11T03:27:31;100968.47;;;19.75;46.43
12868;BME280;33517;49.866;8.320;2022-08-11T03:30:31;100964.81;;;19.69;46.68
12868;BME280;33517;49.866;8.320;2022-08-11T03:33:28;100965.03;;;19.61;46.47
12868;BME280;33517;49.866;8.320;2022-08-11T03:36:53;100965.47;;;19.52;46.66
12868;BME280;33517;49.866;8.320;2022-08-11T03:39:54;100971.63;;;19.46;47.33
12868;BME280;33517;49.866;8.320;2022-08-11T03:42:56;100975.75;;;19.42;47.43
12868;BME280;33517;49.866;8.320;2022-08-11T03:45:56;100972.06;;;19.36;47.38
12868;BME280;33517;49.866;8.320;2022-08-11T03:49:06;100973.50;;;19.32;47.31
12868;BME280;33517;49.866;8.320;2022-08-11T03:52:10;100970.84;;;19.32;48.20
12868;BME280;33517;49.866;8.320;2022-08-11T03:55:13;100977.81;;;19.26;47.89
12868;BME280;33517;49.866;8.320;2022-08-11T03:58:30;100971.22;;;19.22;48.02
12868;BME280;33517;49.866;8.320;2022-08-11T04:02:03;100969.56;;;19.21;47.53
12868;BME280;33517;49.866;8.320;2022-08-11T04:12:25;100974.13;;;19.21;48.32
12868;BME280;33517;49.866;8.320;2022-08-11T04:15:36;100979.25;;;19.22;48.07
12868;BME280;33517;49.866;8.320;2022-08-11T04:26:04;100970.00;;;19.18;48.02
12868;BME280;33517;49.866;8.320;2022-08-11T04:29:09;100967.13;;;19.20;48.15
12868;BME280;33517;49.866;8.320;2022-08-11T04:32:21;100967.75;;;19.22;47.98
12868;BME280;33517;49.866;8.320;2022-08-11T04:35:33;100973.28;;;19.20;48.64
12868;BME280;33517;49.866;8.320;2022-08-11T04:38:59;100975.34;;;19.25;48.51
12868;BME280;33517;49.866;8.320;2022-08-11T04:42:12;100971.03;;;19.30;48.74
12868;BME280;33517;49.866;8.320;2022-08-11T04:45:52;100974.75;;;19.36;48.64
12868;BME280;33517;49.866;8.320;2022-08-11T04:53:05;100981.88;;;19.55;48.43
12868;BME280;33517;49.866;8.320;2022-08-11T04:56:23;100980.84;;;19.63;48.57
12868;BME280;33517;49.866;8.320;2022-08-11T05:00:00;100978.72;;;19.78;48.20
12868;BME280;33517;49.866;8.320;2022-08-11T05:07:14;100986.66;;;19.97;47.62
12868;BME280;33517;49.866;8.320;2022-08-11T05:10:18;100982.88;;;20.11;47.53
12868;BME280;33517;49.866;8.320;2022-08-11T05:13:25;100987.00;;;20.21;47.40
12868;BME280;33517;49.866;8.320;2022-08-11T05:16:42;100984.25;;;20.34;47.20
12868;BME280;33517;49.866;8.320;2022-08-11T05:19:57;100988.50;;;20.48;46.96
12868;BME280;33517;49.866;8.320;2022-08-11T05:23:08;100987.81;;;20.59;47.08
12868;BME280;33517;49.866;8.320;2022-08-11T05:26:20;100997.19;;;20.68;47.13
12868;BME280;33517;49.866;8.320;2022-08-11T05:29:43;100993.59;;;20.80;46.92
12868;BME280;33517;49.866;8.320;2022-08-11T05:32:56;100986.97;;;20.89;47.02
12868;BME280;33517;49.866;8.320;2022-08-11T05:36:11;100990.16;;;21.04;46.80
12868;BME280;33517;49.866;8.320;2022-08-11T05:39:10;100992.09;;;21.16;46.60
12868;BME280;33517;49.866;8.320;2022-08-11T05:42:22;101000.00;;;21.29;46.41
12868;BME280;33517;49.866;8.320;2022-08-11T05:45:33;101002.97;;;21.45;46.14
12868;BME280;33517;49.866;8.320;2022-08-11T05:48:43;100995.38;;;21.60;45.85
12868;BME280;33517;49.866;8.320;2022-08-11T05:51:53;101000.72;;;21.78;45.29
12868;BME280;33517;49.866;8.320;2022-08-11T05:55:05;101014.22;;;22.08;45.26
12868;BME280;33517;49.866;8.320;2022-08-11T05:58:16;101013.31;;;22.62;45.04
12868;BME280;33517;49.866;8.320;2022-08-11T06:01:10;101025.13;;;24.51;41.68
12868;BME280;33517;49.866;8.320;2022-08-11T06:04:05;101018.03;;;27.79;36.34
12868;BME280;33517;49.866;8.320;2022-08-11T06:07:08;101026.50;;;29.30;32.97
12868;BME280;33517;49.866;8.320;2022-08-11T06:10:00;101026.53;;;30.14;32.14
12868;BME280;33517;49.866;8.320;2022-08-11T06:12:53;101030.75;;;30.84;30.74
12868;BME280;33517;49.866;8.320;2022-08-11T06:15:50;101032.03;;;31.25;29.43
12868;BME280;33517;49.866;8.320;2022-08-11T06:18:44;101030.56;;;31.85;29.86
12868;BME280;33517;49.866;8.320;2022-08-11T06:21:37;101032.56;;;32.45;28.40
12868;BME280;33517;49.866;8.320;2022-08-11T06:24:29;101032.16;;;32.52;28.09
12868;BME280;33517;49.866;8.320;2022-08-11T06:27:22;101032.97;;;33.22;27.06
12868;BME280;33517;49.866;8.320;2022-08-11T06:30:16;101034.72;;;33.31;26.67
12868;BME280;33517;49.866;8.320;2022-08-11T06:33:14;101032.69;;;33.37;26.58
12868;BME280;33517;49.866;8.320;2022-08-11T06:36:12;101028.69;;;33.48;25.97
12868;BME280;33517;49.866;8.320;2022-08-11T06:39:14;101023.09;;;34.21;26.04
12868;BME280;33517;49.866;8.320;2022-08-11T06:42:14;101035.00;;;34.52;25.23
12868;BME280;33517;49.866;8.320;2022-08-11T06:45:23;101027.06;;;34.86;24.95
12868;BME280;33517;49.866;8.320;2022-08-11T06:48:20;101027.38;;;35.07;24.38
12868;BME280;33517;49.866;8.320;2022-08-11T06:51:13;101030.69;;;35.26;24.20
12868;BME280;33517;49.866;8.320;2022-08-11T06:54:09;101023.06;;;35.84;23.56
12868;BME280;33517;49.866;8.320;2022-08-11T06:57:04;101031.56;;;36.31;23.64
12868;BME280;33517;49.866;8.320;2022-08-11T07:00:16;101031.91;;;36.72;22.58
12868;BME280;33517;49.866;8.320;2022-08-11T07:03:25;101034.47;;;37.11;21.54
12868;BME280;33517;49.866;8.320;2022-08-11T07:06:37;101029.66;;;36.40;22.02
12868;BME280;33517;49.866;8.320;2022-08-11T07:09:50;101033.19;;;37.00;21.67
12868;BME280;33517;49.866;8.320;2022-08-11T07:13:07;101028.75;;;37.33;22.19
12868;BME280;33517;49.866;8.320;2022-08-11T07:16:21;101032.94;;;37.39;21.35
12868;BME280;33517;49.866;8.320;2022-08-11T07:19:22;101016.13;;;37.78;21.55
12868;BME280;33517;49.866;8.320;2022-08-11T07:22:34;101019.66;;;37.88;21.07
12868;BME280;33517;49.866;8.320;2022-08-11T07:25:57;101016.69;;;38.22;21.10
12868;BME280;33517;49.866;8.320;2022-08-11T07:29:09;101026.28;;;38.78;20.40
12868;BME280;33517;49.866;8.320;2022-08-11T07:32:12;101021.38;;;39.16;20.07
12868;BME280;33517;49.866;8.320;2022-08-11T07:35:10;101016.25;;;39.75;19.70
12868;BME280;33517;49.866;8.320;2022-08-11T07:38:05;101015.00;;;39.72;19.65
12868;BME280;33517;49.866;8.320;2022-08-11T07:40:58;101012.66;;;40.50;19.35
12868;BME280;33517;49.866;8.320;2022-08-11T07:43:54;101013.22;;;40.16;19.13
12868;BME280;33517;49.866;8.320;2022-08-11T07:46:58;101013.38;;;40.07;19.24
12868;BME280;33517;49.866;8.320;2022-08-11T07:50:10;101014.25;;;40.63;18.03
12868;BME280;33517;49.866;8.320;2022-08-11T07:53:20;101009.72;;;40.31;18.72
12868;BME280;33517;49.866;8.320;2022-08-11T07:56:13;101012.59;;;40.34;18.32
12868;BME280;33517;49.866;8.320;2022-08-11T07:59:06;101012.00;;;39.77;18.73
12868;BME280;33517;49.866;8.320;2022-08-11T08:02:17;101002.16;;;40.40;18.24
12868;BME280;33517;49.866;8.320;2022-08-11T08:05:28;101008.03;;;40.94;18.04
12868;BME280;33517;49.866;8.320;2022-08-11T08:08:39;101015.72;;;41.32;17.62
12868;BME280;33517;49.866;8.320;2022-08-11T08:11:49;101000.78;;;40.62;17.90
12868;BME280;33517;49.866;8.320;2022-08-11T08:15:00;101014.06;;;40.84;17.92
12868;BME280;33517;49.866;8.320;2022-08-11T08:18:14;101019.63;;;41.77;17.10
12868;BME280;33517;49.866;8.320;2022-08-11T08:21:08;101021.41;;;42.01;16.72
12868;BME280;33517;49.866;8.320;2022-08-11T08:24:06;101028.75;;;41.78;16.67
12868;BME280;33517;49.866;8.320;2022-08-11T08:26:58;101021.44;;;41.70;17.55
12868;BME280;33517;49.866;8.320;2022-08-11T08:29:50;101020.56;;;42.00;17.33
12868;BME280;33517;49.866;8.320;2022-08-11T08:33:01;101016.69;;;41.86;16.56
12868;BME280;33517;49.866;8.320;2022-08-11T08:35:56;101006.63;;;41.78;16.91
12868;BME280;33517;49.866;8.320;2022-08-11T08:39:03;101004.75;;;42.17;16.73
12868;BME280;33517;49.866;8.320;2022-08-11T08:41:56;101013.88;;;42.55;16.81
12868;BME280;33517;49.866;8.320;2022-08-11T08:44:51;101012.84;;;42.82;16.23
12868;BME280;33517;49.866;8.320;2022-08-11T08:47:51;101011.00;;;43.13;16.57
12868;BME280;33517;49.866;8.320;2022-08-11T08:50:53;101017.03;;;43.89;16.22
12868;BME280;33517;49.866;8.320;2022-08-11T08:54:09;101003.34;;;44.30;15.57
12868;BME280;33517;49.866;8.320;2022-08-11T08:57:03;101003.31;;;43.48;16.01
12868;BME280;33517;49.866;8.320;2022-08-11T08:59:57;101002.38;;;43.63;15.50
12868;BME280;33517;49.866;8.320;2022-08-11T09:02:50;101009.53;;;43.90;15.68
12868;BME280;33517;49.866;8.320;2022-08-11T09:05:42;101002.25;;;44.08;15.37
12868;BME280;33517;49.866;8.320;2022-08-11T09:08:35;101006.47;;;44.58;15.28
12868;BME280;33517;49.866;8.320;2022-08-11T09:11:28;101003.22;;;44.52;15.20
12868;BME280;33517;49.866;8.320;2022-08-11T09:14:40;101002.75;;;44.14;15.42
12868;BME280;33517;49.866;8.320;2022-08-11T09:17:54;101001.63;;;43.92;15.51
12868;BME280;33517;49.866;8.320;2022-08-11T09:20:53;101006.41;;;43.65;15.19
12868;BME280;33517;49.866;8.320;2022-08-11T09:23:45;100998.84;;;43.92;15.14
12868;BME280;33517;49.866;8.320;2022-08-11T09:26:57;101003.06;;;43.56;15.54
12868;BME280;33517;49.866;8.320;2022-08-11T09:29:53;100994.34;;;44.10;15.75
12868;BME280;33517;49.866;8.320;2022-08-11T09:32:46;100998.44;;;43.90;14.84
12868;BME280;33517;49.866;8.320;2022-08-11T09:35:40;100986.13;;;44.47;14.73
12868;BME280;33517;49.866;8.320;2022-08-11T09:38:33;100991.75;;;44.54;14.81
12868;BME280;33517;49.866;8.320;2022-08-11T09:41:43;100995.50;;;45.09;14.62
12868;BME280;33517;49.866;8.320;2022-08-11T09:44:37;100994.66;;;45.05;14.50
12868;BME280;33517;49.866;8.320;2022-08-11T09:47:42;100987.16;;;45.09;13.55
12868;BME280;33517;49.866;8.320;2022-08-11T09:50:35;100987.88;;;44.29;14.54
12868;BME280;33517;49.866;8.320;2022-08-11T09:53:31;100986.78;;;45.10;13.97
12868;BME280;33517;49.866;8.320;2022-08-11T09:56:24;100987.69;;;44.15;14.55
12868;BME280;33517;49.866;8.320;2022-08-11T09:59:33;100989.69;;;44.47;14.63
12868;BME280;33517;49.866;8.320;2022-08-11T10:02:28;100985.88;;;44.62;14.42
12868;BME280;33517;49.866;8.320;2022-08-11T10:05:21;100975.34;;;43.56;14.83
12868;BME280;33517;49.866;8.320;2022-08-11T10:08:31;100992.22;;;43.48;14.19
12868;BME280;33517;49.866;8.320;2022-08-11T10:11:25;100980.75;;;43.23;15.24
12868;BME280;33517;49.866;8.320;2022-08-11T10:14:18;100983.72;;;44.45;14.43
12868;BME280;33517;49.866;8.320;2022-08-11T10:17:30;100978.09;;;44.09;14.25
12868;BME280;33517;49.866;8.320;2022-08-11T10:20:23;100967.59;;;44.98;14.15
12868;BME280;33517;49.866;8.320;2022-08-11T10:23:16;100969.72;;;46.27;13.49
12868;BME280;33517;49.866;8.320;2022-08-11T10:26:27;100955.03;;;46.44;13.12
12868;BME280;33517;49.866;8.320;2022-08-11T10:29:38;100970.03;;;45.00;13.21
12868;BME280;33517;49.866;8.320;2022-08-11T10:32:50;100958.53;;;44.64;13.46
12868;BME280;33517;49.866;8.320;2022-08-11T10:36:00;100961.06;;;44.10;13.91
12868;BME280;33517;49.866;8.320;2022-08-11T10:38:53;100954.78;;;43.35;14.01
12868;BME280;33517;49.866;8.320;2022-08-11T10:41:47;100947.09;;;43.73;14.15
12868;BME280;33517;49.866;8.320;2022-08-11T10:44:57;100945.69;;;44.49;13.75
12868;BME280;33517;49.866;8.320;2022-08-11T10:47:54;100952.94;;;44.98;13.74
12868;BME280;33517;49.866;8.320;2022-08-11T10:50:46;100946.63;;;45.08;13.19
12868;BME280;33517;49.866;8.320;2022-08-11T10:53:56;100945.72;;;44.93;13.29
12868;BME280;33517;49.866;8.320;2022-08-11T10:57:06;100945.38;;;44.98;13.27
12868;BME280;33517;49.866;8.320;2022-08-11T11:00:16;100937.34;;;43.86;13.98
12868;BME280;33517;49.866;8.320;2022-08-11T11:03:10;100928.44;;;42.99;14.22
12868;BME280;33517;49.866;8.320;2022-08-11T11:06:07;100924.78;;;43.96;14.08
12868;BME280;33517;49.866;8.320;2022-08-11T11:09:03;100916.78;;;44.21;13.73
12868;BME280;33517;49.866;8.320;2022-08-11T11:11:58;100926.47;;;44.74;13.66
12868;BME280;33517;49.866;8.320;2022-08-11T11:15:10;100917.44;;;44.81;13.63
12868;BME280;33517;49.866;8.320;2022-08-11T11:18:23;100915.19;;;44.97;13.36
12868;BME280;33517;49.866;8.320;2022-08-11T11:21:19;100914.84;;;45.56;13.00
12868;BME280;33517;49.866;8.320;2022-08-11T11:24:15;100902.41;;;44.89;13.36
12868;BME280;33517;49.866;8.320;2022-08-11T11:27:17;100889.53;;;43.67;13.71
12868;BME280;33517;49.866;8.320;2022-08-11T11:30:12;100888.19;;;43.57;13.93
12868;BME280;33517;49.866;8.320;2022-08-11T11:33:12;100882.00;;;44.34;13.58
12868;BME280;33517;49.866;8.320;2022-08-11T11:36:15;100876.63;;;44.44;13.56
12868;BME280;33517;49.866;8.320;2022-08-11T11:39:16;100885.06;;;43.88;13.19
12868;BME280;33517;49.866;8.320;2022-08-11T11:42:09;100873.34;;;44.76;13.33
12868;BME280;33517;49.866;8.320;2022-08-11T11:45:02;100877.03;;;44.90;12.82
12868;BME280;33517;49.866;8.320;2022-08-11T11:47:56;100870.66;;;44.42;12.78
12868;BME280;33517;49.866;8.320;2022-08-11T11:50:49;100865.72;;;45.16;13.23
12868;BME280;33517;49.866;8.320;2022-08-11T11:53:43;100862.19;;;45.98;12.67
12868;BME280;33517;49.866;8.320;2022-08-11T11:56:36;100852.53;;;45.71;12.17
12868;BME280;33517;49.866;8.320;2022-08-11T11:59:29;100870.69;;;45.44;12.16
12868;BME280;33517;49.866;8.320;2022-08-11T12:02:39;100851.34;;;43.86;12.83
12868;BME280;33517;49.866;8.320;2022-08-11T12:05:33;100840.22;;;43.57;13.42
12868;BME280;33517;49.866;8.320;2022-08-11T12:08:25;100848.00;;;44.81;13.11
12868;BME280;33517;49.866;8.320;2022-08-11T12:11:21;100849.47;;;44.71;12.98
12868;BME280;33517;49.866;8.320;2022-08-11T12:14:31;100840.00;;;43.39;13.01
12868;BME280;33517;49.866;8.320;2022-08-11T12:17:24;100843.44;;;43.59;13.64
12868;BME280;33517;49.866;8.320;2022-08-11T12:20:16;100835.47;;;44.60;13.07
12868;BME280;33517;49.866;8.320;2022-08-11T12:23:11;100837.53;;;44.67;12.76
12868;BME280;33517;49.866;8.320;2022-08-11T12:26:24;100819.19;;;42.96;13.27
12868;BME280;33517;49.866;8.320;2022-08-11T12:29:34;100816.03;;;42.75;13.91
12868;BME280;33517;49.866;8.320;2022-08-11T12:32:27;100809.06;;;41.98;14.24
12868;BME280;33517;49.866;8.320;2022-08-11T12:35:20;100796.38;;;43.07;14.36
12868;BME280;33517;49.866;8.320;2022-08-11T12:38:13;100811.56;;;42.67;14.41
12868;BME280;33517;49.866;8.320;2022-08-11T12:41:07;100793.38;;;42.25;14.01
12868;BME280;33517;49.866;8.320;2022-08-11T12:44:19;100796.34;;;42.35;13.73
12868;BME280;33517;49.866;8.320;2022-08-11T12:47:31;100799.81;;;43.00;13.92
12868;BME280;33517;49.866;8.320;2022-08-11T12:50:46;100794.03;;;42.82;13.97
12868;BME280;33517;49.866;8.320;2022-08-11T12:54:07;100788.78;;;43.03;13.74
12868;BME280;33517;49.866;8.320;2022-08-11T12:57:02;100786.84;;;43.34;13.69
12868;BME280;33517;49.866;8.320;2022-08-11T13:00:16;100781.78;;;42.83;14.23
12868;BME280;33517;49.866;8.320;2022-08-11T13:03:26;100782.94;;;42.37;13.86
12868;BME280;33517;49.866;8.320;2022-08-11T13:06:36;100777.59;;;41.10;15.27
12868;BME280;33517;49.866;8.320;2022-08-11T13:09:29;100764.16;;;38.24;16.84
12868;BME280;33517;49.866;8.320;2022-08-11T13:12:22;100759.66;;;36.29;17.94
12868;BME280;33517;49.866;8.320;2022-08-11T13:15:34;100754.44;;;35.55;18.90
12868;BME280;33517;49.866;8.320;2022-08-11T13:18:27;100748.25;;;34.98;19.68
12868;BME280;33517;49.866;8.320;2022-08-11T13:21:20;100747.69;;;34.88;19.46
12868;BME280;33517;49.866;8.320;2022-08-11T13:24:12;100749.56;;;34.31;20.17
12868;BME280;33517;49.866;8.320;2022-08-11T13:27:05;100732.22;;;33.61;20.63
12868;BME280;33517;49.866;8.320;2022-08-11T13:29:58;100744.91;;;33.43;20.86
12868;BME280;33517;49.866;8.320;2022-08-11T13:33:05;100735.75;;;33.25;21.18
12868;BME280;33517;49.866;8.320;2022-08-11T13:35:57;100741.72;;;33.27;21.18
12868;BME280;33517;49.866;8.320;2022-08-11T13:38:50;100733.66;;;33.44;21.32
12868;BME280;33517;49.866;8.320;2022-08-11T13:41:44;100733.59;;;33.36;21.38
12868;BME280;33517;49.866;8.320;2022-08-11T13:44:37;100726.94;;;33.28;21.40
12868;BME280;33517;49.866;8.320;2022-08-11T13:47:30;100722.94;;;33.12;21.52
12868;BME280;33517;49.866;8.320;2022-08-11T13:50:25;100709.44;;;32.94;20.90
12868;BME280;33517;49.866;8.320;2022-08-11T13:53:38;100723.41;;;33.28;20.93
12868;BME280;33517;49.866;8.320;2022-08-11T13:56:35;100708.88;;;33.19;21.33
12868;BME280;33517;49.866;8.320;2022-08-11T13:59:29;100706.50;;;33.04;21.06
12868;BME280;33517;49.866;8.320;2022-08-11T14:02:26;100707.00;;;33.06;20.76
12868;BME280;33517;49.866;8.320;2022-08-11T14:05:21;100708.31;;;32.81;20.92
12868;BME280;33517;49.866;8.320;2022-08-11T14:08:24;100699.75;;;32.74;21.86
12868;BME280;33517;49.866;8.320;2022-08-11T14:11:18;100689.34;;;32.90;21.79
12868;BME280;33517;49.866;8.320;2022-08-11T14:14:31;100690.91;;;33.18;21.18
12868;BME280;33517;49.866;8.320;2022-08-11T14:17:25;100682.56;;;33.01;21.61
12868;BME280;33517;49.866;8.320;2022-08-11T14:20:20;100677.81;;;32.79;21.51
12868;BME280;33517;49.866;8.320;2022-08-11T14:23:13;100679.53;;;32.89;21.77
12868;BME280;33517;49.866;8.320;2022-08-11T14:26:08;100681.03;;;32.95;21.92
12868;BME280;33517;49.866;8.320;2022-08-11T14:29:25;100670.66;;;32.97;21.97
12868;BME280;33517;49.866;8.320;2022-08-11T14:32:19;100670.38;;;32.57;22.28
12868;BME280;33517;49.866;8.320;2022-08-11T14:35:11;100676.25;;;32.51;21.90
12868;BME280;33517;49.866;8.320;2022-08-11T14:38:03;100668.16;;;32.59;21.59
12868;BME280;33517;49.866;8.320;2022-08-11T14:40:55;100668.16;;;32.59;21.99
12868;BME280;33517;49.866;8.320;2022-08-11T14:44:07;100663.81;;;32.72;21.20
12868;BME280;33517;49.866;8.320;2022-08-11T14:47:18;100657.16;;;32.65;21.90
12868;BME280;33517;49.866;8.320;2022-08-11T14:50:12;100664.13;;;32.71;21.44
12868;BME280;33517;49.866;8.320;2022-08-11T14:53:06;100647.97;;;32.60;21.59
12868;BME280;33517;49.866;8.320;2022-08-11T14:55:59;100638.66;;;32.61;22.11
12868;BME280;33517;49.866;8.320;2022-08-11T14:59:11;100644.22;;;32.43;21.88
12868;BME280;33517;49.866;8.320;2022-08-11T15:02:04;100638.22;;;32.46;21.61
12868;BME280;33517;49.866;8.320;2022-08-11T15:05:15;100637.25;;;32.37;21.28
12868;BME280;33517;49.866;8.320;2022-08-11T15:08:07;100637.50;;;32.27;21.81
12868;BME280;33517;49.866;8.320;2022-08-11T15:11:00;100638.69;;;32.21;21.16
12868;BME280;33517;49.866;8.320;2022-08-11T15:14:13;100638.28;;;32.14;21.13
12868;BME280;33517;49.866;8.320;2022-08-11T15:17:26;100645.44;;;32.10;20.65
12868;BME280;33517;49.866;8.320;2022-08-11T15:20:21;100628.19;;;32.01;20.89
12868;BME280;33517;49.866;8.320;2022-08-11T15:23:31;100629.09;;;31.96;21.02
12868;BME280;33517;49.866;8.320;2022-08-11T15:26:41;100621.59;;;31.88;21.40
12868;BME280;33517;49.866;8.320;2022-08-11T15:29:53;100636.97;;;31.79;20.68
12868;BME280;33517;49.866;8.320;2022-08-11T15:33:06;100627.19;;;31.64;20.59
12868;BME280;33517;49.866;8.320;2022-08-11T15:36:16;100624.34;;;31.56;22.08
12868;BME280;33517;49.866;8.320;2022-08-11T15:39:31;100614.59;;;31.68;21.04
12868;BME280;33517;49.866;8.320;2022-08-11T15:42:24;100606.47;;;31.82;21.90
12868;BME280;33517;49.866;8.320;2022-08-11T15:45:36;100624.28;;;31.74;21.20
12868;BME280;33517;49.866;8.320;2022-08-11T15:48:43;100616.59;;;31.63;21.61
12868;BME280;33517;49.866;8.320;2022-08-11T15:51:41;100601.38;;;31.62;20.85
12868;BME280;33517;49.866;8.320;2022-08-11T15:54:38;100599.06;;;31.55;21.65
12868;BME280;33517;49.866;8.320;2022-08-11T15:57:32;100594.94;;;31.58;22.51
12868;BME280;33517;49.866;8.320;2022-08-11T16:00:44;100594.44;;;31.56;21.79
12868;BME280;33517;49.866;8.320;2022-08-11T16:03:59;100599.56;;;31.57;22.02
12868;BME280;33517;49.866;8.320;2022-08-11T16:07:07;100601.63;;;31.47;21.61
12868;BME280;33517;49.866;8.320;2022-08-11T16:10:04;100602.97;;;31.49;21.66
12868;BME280;33517;49.866;8.320;2022-08-11T16:12:59;100590.84;;;31.42;21.61
12868;BME280;33517;49.866;8.320;2022-08-11T16:16:07;100597.38;;;31.41;22.09
12868;BME280;33517;49.866;8.320;2022-08-11T16:19:07;100590.84;;;31.42;22.22
12868;BME280;33517;49.866;8.320;2022-08-11T16:22:02;100579.28;;;31.50;22.49
12868;BME280;33517;49.866;8.320;2022-08-11T16:24:57;100577.25;;;31.42;21.77
12868;BME280;33517;49.866;8.320;2022-08-11T16:27:52;100569.22;;;31.32;21.54
12868;BME280;33517;49.866;8.320;2022-08-11T16:30:47;100572.56;;;31.29;21.54
12868;BME280;33517;49.866;8.320;2022-08-11T16:33:41;100576.16;;;31.24;21.63
12868;BME280;33517;49.866;8.320;2022-08-11T16:36:34;100572.09;;;31.22;22.58